sensor_id;sensor_type;location;lat;lon;timestamp;P1;durP1;ratioP1;P2;durP2;ratioP2
4078;SDS011;2054;47.858;11.156;2022-08-20T02:31:31;17.75;;;14.05;;
4078;SDS011;2054;47.858;11.156;2022-08-20T02:34:00;17.80;;;14.20;;
4078;SDS011;2054;47.858;11.156;2022-08-20T02:36:28;18.75;;;14.52;;
4078;SDS011;2054;47.858;11.156;2022-08-20T02:38:56;18.40;;;14.45;;
4078;SDS011;2054;47.858;11.156;2022-08-20T02:41:24;17.15;;;14.70;;
4078;SDS011;2054;47.858;11.156;2022-08-20T02:43:52;19.17;;;14.38;;
4078;SDS011;2054;47.858;11.156;2022-08-20T02:46:20;17.25;;;14.85;;
4078;SDS011;2054;47.858;11.156;2022-08-20T02:48:49;18.50;;;14.25;;
4078;SDS011;2054;47.858;11.156;2022-08-20T02:51:16;20.00;;;15.43;;
4078;SDS011;2054;47.858;11.156;2022-08-20T02:53:45;19.70;;;15.15;;
4078;SDS011;2054;47.858;11.156;2022-08-20T02:56:13;17.77;;;15.05;;
4078;SDS011;2054;47.858;11.156;2022-08-20T02:58:41;20.88;;;16.52;;
4078;SDS011;2054;47.858;11.156;2022-08-20T03:01:11;18.98;;;14.18;;
4078;SDS011;2054;47.858;11.156;2022-08-20T03:03:39;20.40;;;15.48;;
4078;SDS011;2054;47.858;11.156;2022-08-20T03:06:08;16.75;;;13.95;;
4078;SDS011;2054;47.858;11.156;2022-08-20T03:08:36;19.85;;;14.40;;
4078;SDS011;2054;47.858;11.156;2022-08-20T03:11:04;20.80;;;15.57;;
4078;SDS011;2054;47.858;11.156;2022-08-20T03:13:32;19.25;;;15.45;;
4078;SDS011;2054;47.858;11.156;2022-08-20T03:16:02;19.95;;;15.02;;
4078;SDS011;2054;47.858;11.156;2022-08-20T03:18:30;18.63;;;14.85;;
4078;SDS011;2054;47.858;11.156;2022-08-20T03:20:59;20.08;;;14.38;;
4078;SDS011;2054;47.858;11.156;2022-08-20T03:23:28;17.75;;;14.43;;
4078;SDS011;2054;47.858;11.156;2022-08-20T03:25:56;17.52;;;14.95;;
4078;SDS011;2054;47.858;11.156;2022-08-20T03:28:25;18.40;;;14.82;;
4078;SDS011;2054;47.858;11.156;2022-08-20T03:30:53;18.17;;;14.57;;
4078;SDS011;2054;47.858;11.156;2022-08-20T03:33:22;16.90;;;14.35;;
4078;SDS011;2054;47.858;11.156;2022-08-20T03:35:50;17.92;;;14.45;;
4078;SDS011;2054;47.858;11.156;2022-08-20T03:38:18;18.05;;;15.20;;
4078;SDS011;2054;47.858;11.156;2022-08-20T03:40:48;18.83;;;15.23;;
4078;SDS011;2054;47.858;11.156;2022-08-20T03:43:16;19.60;;;14.77;;
4078;SDS011;2054;47.858;11.156;2022-08-20T03:45:44;17.23;;;13.63;;
4078;SDS011;2054;47.858;11.156;2022-08-20T03:48:13;19.10;;;14.32;;
4078;SDS011;2054;47.858;11.156;2022-08-20T03:50:41;16.25;;;14.02;;
4078;SDS011;2054;47.858;11.156;2022-08-20T03:53:09;17.17;;;14.13;;
4078;SDS011;2054;47.858;11.156;2022-08-20T03:55:37;17.45;;;14.73;;
4078;SDS011;2054;47.858;11.156;2022-08-20T03:58:07;16.63;;;13.73;;
4078;SDS011;2054;47.858;11.156;2022-08-20T04:00:37;18.08;;;14.23;;
4078;SDS011;2054;47.858;11.156;2022-08-20T04:03:05;19.08;;;15.18;;
4078;SDS011;2054;47.858;11.156;2022-08-20T04:05:34;16.13;;;13.30;;
4078;SDS011;2054;47.858;11.156;2022-08-20T04:08:05;18.40;;;15.32;;
4078;SDS011;2054;47.858;11.156;2022-08-20T04:10:33;16.52;;;13.73;;
4078;SDS011;2054;47.858;11.156;2022-08-20T04:13:01;16.30;;;14.35;;
4078;SDS011;2054;47.858;11.156;2022-08-20T04:15:30;19.17;;;14.95;;
4078;SDS011;2054;47.858;11.156;2022-08-20T04:17:58;16.90;;;14.05;;
4078;SDS011;2054;47.858;11.156;2022-08-20T04:20:27;18.13;;;13.70;;
4078;SDS011;2054;47.858;11.156;2022-08-20T04:22:55;17.95;;;15.10;;
4078;SDS011;2054;47.858;11.156;2022-08-20T04:25:22;17.23;;;14.18;;
4078;SDS011;2054;47.858;11.156;2022-08-20T04:27:51;20.08;;;14.48;;
4078;SDS011;2054;47.858;11.156;2022-08-20T04:30:18;18.65;;;14.18;;
4078;SDS011;2054;47.858;11.156;2022-08-20T04:32:49;17.13;;;14.50;;
4078;SDS011;2054;47.858;11.156;2022-08-20T04:35:17;19.00;;;15.27;;
4078;SDS011;2054;47.858;11.156;2022-08-20T04:37:46;19.60;;;14.85;;
4078;SDS011;2054;47.858;11.156;2022-08-20T04:40:14;19.73;;;14.82;;
4078;SDS011;2054;47.858;11.156;2022-08-20T04:43:05;17.63;;;14.38;;
4078;SDS011;2054;47.858;11.156;2022-08-20T04:45:32;19.45;;;15.20;;
4078;SDS011;2054;47.858;11.156;2022-08-20T04:48:01;20.55;;;15.88;;
4078;SDS011;2054;47.858;11.156;2022-08-20T04:50:31;19.58;;;15.82;;
4078;SDS011;2054;47.858;11.156;2022-08-20T04:53:01;19.50;;;15.13;;
4078;SDS011;2054;47.858;11.156;2022-08-20T04:55:29;19.55;;;15.80;;
4078;SDS011;2054;47.858;11.156;2022-08-20T04:58:01;19.70;;;16.10;;
4078;SDS011;2054;47.858;11.156;2022-08-20T05:00:28;21.83;;;16.42;;
4078;SDS011;2054;47.858;11.156;2022-08-20T05:02:57;18.70;;;15.77;;
4078;SDS011;2054;47.858;11.156;2022-08-20T05:05:26;18.83;;;15.93;;
4078;SDS011;2054;47.858;11.156;2022-08-20T05:07:55;19.42;;;15.88;;
4078;SDS011;2054;47.858;11.156;2022-08-20T05:10:23;18.83;;;15.40;;
4078;SDS011;2054;47.858;11.156;2022-08-20T05:12:51;19.92;;;16.90;;
4078;SDS011;2054;47.858;11.156;2022-08-20T05:15:19;18.38;;;15.18;;
4078;SDS011;2054;47.858;11.156;2022-08-20T05:17:53;18.38;;;15.27;;
4078;SDS011;2054;47.858;11.156;2022-08-20T05:20:21;16.73;;;14.23;;
4078;SDS011;2054;47.858;11.156;2022-08-20T05:22:50;18.65;;;14.68;;
4078;SDS011;2054;47.858;11.156;2022-08-20T05:25:20;16.70;;;13.75;;
4078;SDS011;2054;47.858;11.156;2022-08-20T05:27:48;17.27;;;14.35;;
4078;SDS011;2054;47.858;11.156;2022-08-20T05:30:16;15.43;;;13.80;;
4078;SDS011;2054;47.858;11.156;2022-08-20T05:32:45;17.75;;;14.60;;
4078;SDS011;2054;47.858;11.156;2022-08-20T05:35:15;17.95;;;14.27;;
4078;SDS011;2054;47.858;11.156;2022-08-20T05:37:43;15.80;;;13.50;;
4078;SDS011;2054;47.858;11.156;2022-08-20T05:40:14;15.98;;;13.82;;
4078;SDS011;2054;47.858;11.156;2022-08-20T05:42:42;18.85;;;13.60;;
4078;SDS011;2054;47.858;11.156;2022-08-20T05:45:10;16.27;;;14.45;;
4078;SDS011;2054;47.858;11.156;2022-08-20T05:47:38;16.88;;;14.27;;
4078;SDS011;2054;47.858;11.156;2022-08-20T05:50:07;18.13;;;13.63;;
4078;SDS011;2054;47.858;11.156;2022-08-20T05:52:35;16.63;;;12.90;;
4078;SDS011;2054;47.858;11.156;2022-08-20T05:55:04;15.55;;;12.82;;
4078;SDS011;2054;47.858;11.156;2022-08-20T05:57:33;14.75;;;13.15;;
4078;SDS011;2054;47.858;11.156;2022-08-20T06:00:04;14.52;;;12.90;;
4078;SDS011;2054;47.858;11.156;2022-08-20T06:02:32;14.98;;;12.50;;
4078;SDS011;2054;47.858;11.156;2022-08-20T06:05:18;13.57;;;11.48;;
4078;SDS011;2054;47.858;11.156;2022-08-20T06:07:46;13.85;;;12.05;;
4078;SDS011;2054;47.858;11.156;2022-08-20T06:10:15;12.55;;;11.25;;
4078;SDS011;2054;47.858;11.156;2022-08-20T06:12:45;13.35;;;11.95;;
4078;SDS011;2054;47.858;11.156;2022-08-20T06:15:13;15.18;;;11.93;;
4078;SDS011;2054;47.858;11.156;2022-08-20T06:17:40;14.20;;;11.68;;
4078;SDS011;2054;47.858;11.156;2022-08-20T06:20:09;12.75;;;10.63;;
4078;SDS011;2054;47.858;11.156;2022-08-20T06:22:36;14.23;;;11.40;;
4078;SDS011;2054;47.858;11.156;2022-08-20T06:25:05;11.75;;;10.55;;
4078;SDS011;2054;47.858;11.156;2022-08-20T06:27:36;12.35;;;11.02;;
4078;SDS011;2054;47.858;11.156;2022-08-20T06:30:07;12.45;;;10.75;;
4078;SDS011;2054;47.858;11.156;2022-08-20T06:32:35;12.05;;;9.85;;
4078;SDS011;2054;47.858;11.156;2022-08-20T06:35:04;11.35;;;10.10;;
4078;SDS011;2054;47.858;11.156;2022-08-20T06:37:32;10.93;;;9.50;;
4078;SDS011;2054;47.858;11.156;2022-08-20T06:40:00;11.65;;;10.50;;
4078;SDS011;2054;47.858;11.156;2022-08-20T06:42:30;11.07;;;9.82;;
4078;SDS011;2054;47.858;11.156;2022-08-20T06:44:57;10.20;;;9.18;;
4078;SDS011;2054;47.858;11.156;2022-08-20T06:47:31;9.63;;;8.55;;
4078;SDS011;2054;47.858;11.156;2022-08-20T06:49:58;9.90;;;8.63;;
4078;SDS011;2054;47.858;11.156;2022-08-20T06:52:26;10.45;;;9.00;;
4078;SDS011;2054;47.858;11.156;2022-08-20T06:54:53;9.93;;;8.93;;
4078;SDS011;2054;47.858;11.156;2022-08-20T06:57:21;10.55;;;9.10;;
4078;SDS011;2054;47.858;11.156;2022-08-20T06:59:49;9.70;;;8.70;;
4078;SDS011;2054;47.858;11.156;2022-08-20T07:02:17;9.25;;;7.95;;
4078;SDS011;2054;47.858;11.156;2022-08-20T07:04:46;9.57;;;8.52;;
4078;SDS011;2054;47.858;11.156;2022-08-20T07:07:15;10.60;;;9.00;;
4078;SDS011;2054;47.858;11.156;2022-08-20T07:09:43;9.77;;;8.73;;
4078;SDS011;2054;47.858;11.156;2022-08-20T07:12:12;10.05;;;8.65;;
4078;SDS011;2054;47.858;11.156;2022-08-20T07:14:40;11.93;;;8.43;;
4078;SDS011;2054;47.858;11.156;2022-08-20T07:17:09;10.10;;;8.98;;
4078;SDS011;2054;47.858;11.156;2022-08-20T07:19:38;9.20;;;7.63;;
4078;SDS011;2054;47.858;11.156;2022-08-20T07:22:07;9.32;;;8.23;;
4078;SDS011;2054;47.858;11.156;2022-08-20T07:24:39;8.18;;;7.38;;
4078;SDS011;2054;47.858;11.156;2022-08-20T07:27:07;9.23;;;7.72;;
4078;SDS011;2054;47.858;11.156;2022-08-20T07:29:34;8.77;;;7.88;;
4078;SDS011;2054;47.858;11.156;2022-08-20T07:32:16;8.75;;;7.45;;
4078;SDS011;2054;47.858;11.156;2022-08-20T07:35:03;8.77;;;7.72;;
4078;SDS011;2054;47.858;11.156;2022-08-20T07:37:36;8.90;;;7.55;;
4078;SDS011;2054;47.858;11.156;2022-08-20T07:40:04;8.30;;;7.38;;
4078;SDS011;2054;47.858;11.156;2022-08-20T07:42:33;8.18;;;7.32;;
4078;SDS011;2054;47.858;11.156;2022-08-20T07:45:01;8.02;;;7.22;;
4078;SDS011;2054;47.858;11.156;2022-08-20T07:47:29;7.68;;;6.95;;
4078;SDS011;2054;47.858;11.156;2022-08-20T07:49:58;8.38;;;7.55;;
4078;SDS011;2054;47.858;11.156;2022-08-20T07:52:26;8.80;;;7.90;;
4078;SDS011;2054;47.858;11.156;2022-08-20T07:55:00;8.30;;;7.50;;
4078;SDS011;2054;47.858;11.156;2022-08-20T07:57:27;10.15;;;8.27;;
4078;SDS011;2054;47.858;11.156;2022-08-20T07:59:56;9.13;;;8.18;;
4078;SDS011;2054;47.858;11.156;2022-08-20T08:02:24;9.63;;;7.78;;
4078;SDS011;2054;47.858;11.156;2022-08-20T08:04:52;8.85;;;7.95;;
4078;SDS011;2054;47.858;11.156;2022-08-20T08:07:19;8.52;;;7.65;;
4078;SDS011;2054;47.858;11.156;2022-08-20T08:09:47;9.05;;;7.57;;
4078;SDS011;2054;47.858;11.156;2022-08-20T08:12:17;8.90;;;8.02;;
4078;SDS011;2054;47.858;11.156;2022-08-20T08:14:45;11.02;;;8.43;;
4078;SDS011;2054;47.858;11.156;2022-08-20T08:17:13;8.98;;;7.88;;
4078;SDS011;2054;47.858;11.156;2022-08-20T08:19:43;8.65;;;7.38;;
4078;SDS011;2054;47.858;11.156;2022-08-20T08:22:14;8.20;;;7.38;;
4078;SDS011;2054;47.858;11.156;2022-08-20T08:24:45;9.80;;;7.40;;
4078;SDS011;2054;47.858;11.156;2022-08-20T08:27:13;8.68;;;7.03;;
4078;SDS011;2054;47.858;11.156;2022-08-20T08:29:44;8.38;;;7.50;;
4078;SDS011;2054;47.858;11.156;2022-08-20T08:32:14;8.88;;;7.38;;
4078;SDS011;2054;47.858;11.156;2022-08-20T08:34:42;9.25;;;7.15;;
4078;SDS011;2054;47.858;11.156;2022-08-20T08:37:12;8.23;;;7.30;;
4078;SDS011;2054;47.858;11.156;2022-08-20T08:39:40;8.00;;;7.00;;
4078;SDS011;2054;47.858;11.156;2022-08-20T08:42:16;8.23;;;6.97;;
4078;SDS011;2054;47.858;11.156;2022-08-20T08:44:52;7.80;;;7.03;;
4078;SDS011;2054;47.858;11.156;2022-08-20T08:47:25;7.57;;;6.70;;
4078;SDS011;2054;47.858;11.156;2022-08-20T08:49:54;8.75;;;7.85;;
4078;SDS011;2054;47.858;11.156;2022-08-20T08:52:23;8.10;;;7.10;;
4078;SDS011;2054;47.858;11.156;2022-08-20T08:54:52;8.80;;;6.93;;
4078;SDS011;2054;47.858;11.156;2022-08-20T08:57:21;9.57;;;7.72;;
4078;SDS011;2054;47.858;11.156;2022-08-20T08:59:53;9.10;;;7.43;;
4078;SDS011;2054;47.858;11.156;2022-08-20T09:02:22;7.53;;;6.72;;
4078;SDS011;2054;47.858;11.156;2022-08-20T09:04:52;9.88;;;6.63;;
4078;SDS011;2054;47.858;11.156;2022-08-20T09:07:21;8.35;;;7.10;;
4078;SDS011;2054;47.858;11.156;2022-08-20T09:09:51;8.85;;;6.68;;
4078;SDS011;2054;47.858;11.156;2022-08-20T09:12:20;7.97;;;6.70;;
4078;SDS011;2054;47.858;11.156;2022-08-20T09:14:48;6.70;;;6.07;;
4078;SDS011;2054;47.858;11.156;2022-08-20T09:17:19;8.38;;;7.57;;
4078;SDS011;2054;47.858;11.156;2022-08-20T09:19:47;8.15;;;7.35;;
4078;SDS011;2054;47.858;11.156;2022-08-20T09:22:18;7.57;;;6.82;;
4078;SDS011;2054;47.858;11.156;2022-08-20T09:24:47;8.02;;;6.20;;
4078;SDS011;2054;47.858;11.156;2022-08-20T09:27:16;7.32;;;6.28;;
4078;SDS011;2054;47.858;11.156;2022-08-20T09:29:44;7.97;;;6.10;;
4078;SDS011;2054;47.858;11.156;2022-08-20T09:32:15;6.97;;;6.28;;
4078;SDS011;2054;47.858;11.156;2022-08-20T09:34:47;7.90;;;6.80;;
4078;SDS011;2054;47.858;11.156;2022-08-20T09:37:20;7.18;;;5.90;;
4078;SDS011;2054;47.858;11.156;2022-08-20T09:39:48;8.38;;;6.32;;
4078;SDS011;2054;47.858;11.156;2022-08-20T09:42:17;6.88;;;5.80;;
4078;SDS011;2054;47.858;11.156;2022-08-20T09:44:45;6.63;;;5.90;;
4078;SDS011;2054;47.858;11.156;2022-08-20T09:47:12;6.22;;;5.63;;
4078;SDS011;2054;47.858;11.156;2022-08-20T09:49:42;7.50;;;6.57;;
4078;SDS011;2054;47.858;11.156;2022-08-20T09:52:15;7.85;;;6.43;;
4078;SDS011;2054;47.858;11.156;2022-08-20T09:54:44;8.63;;;6.80;;
4078;SDS011;2054;47.858;11.156;2022-08-20T09:57:11;7.10;;;6.40;;
4078;SDS011;2054;47.858;11.156;2022-08-20T09:59:40;9.02;;;6.43;;
4078;SDS011;2054;47.858;11.156;2022-08-20T10:02:08;7.50;;;6.32;;
4078;SDS011;2054;47.858;11.156;2022-08-20T10:04:36;6.65;;;5.93;;
4078;SDS011;2054;47.858;11.156;2022-08-20T10:07:05;6.70;;;5.82;;
4078;SDS011;2054;47.858;11.156;2022-08-20T10:09:34;6.82;;;6.10;;
4078;SDS011;2054;47.858;11.156;2022-08-20T10:12:03;6.20;;;5.40;;
4078;SDS011;2054;47.858;11.156;2022-08-20T10:14:31;5.88;;;5.10;;
4078;SDS011;2054;47.858;11.156;2022-08-20T10:16:59;6.18;;;5.57;;
4078;SDS011;2054;47.858;11.156;2022-08-20T10:19:26;7.45;;;5.78;;
4078;SDS011;2054;47.858;11.156;2022-08-20T10:21:54;6.38;;;4.97;;
4078;SDS011;2054;47.858;11.156;2022-08-20T10:24:22;7.80;;;6.95;;
4078;SDS011;2054;47.858;11.156;2022-08-20T10:26:50;6.63;;;5.47;;
4078;SDS011;2054;47.858;11.156;2022-08-20T10:29:20;8.43;;;5.30;;
4078;SDS011;2054;47.858;11.156;2022-08-20T10:31:47;6.35;;;4.93;;
4078;SDS011;2054;47.858;11.156;2022-08-20T10:34:14;5.90;;;5.10;;
4078;SDS011;2054;47.858;11.156;2022-08-20T10:36:42;7.53;;;5.10;;
4078;SDS011;2054;47.858;11.156;2022-08-20T10:39:09;7.03;;;5.82;;
4078;SDS011;2054;47.858;11.156;2022-08-20T10:41:37;6.78;;;5.30;;
4078;SDS011;2054;47.858;11.156;2022-08-20T10:44:05;6.38;;;4.97;;
4078;SDS011;2054;47.858;11.156;2022-08-20T10:46:33;5.40;;;4.90;;
4078;SDS011;2054;47.858;11.156;2022-08-20T10:49:00;8.73;;;5.32;;
4078;SDS011;2054;47.858;11.156;2022-08-20T10:51:27;4.78;;;4.38;;
4078;SDS011;2054;47.858;11.156;2022-08-20T10:53:55;4.80;;;4.13;;
4078;SDS011;2054;47.858;11.156;2022-08-20T10:56:22;6.80;;;4.88;;
4078;SDS011;2054;47.858;11.156;2022-08-20T10:58:50;4.80;;;4.40;;
4078;SDS011;2054;47.858;11.156;2022-08-20T11:01:18;5.10;;;4.07;;
4078;SDS011;2054;47.858;11.156;2022-08-20T11:03:46;4.95;;;4.47;;
4078;SDS011;2054;47.858;11.156;2022-08-20T11:06:13;5.18;;;3.95;;
4078;SDS011;2054;47.858;11.156;2022-08-20T11:08:40;4.68;;;4.28;;
4078;SDS011;2054;47.858;11.156;2022-08-20T11:11:07;4.97;;;4.40;;
4078;SDS011;2054;47.858;11.156;2022-08-20T11:13:34;7.10;;;4.32;;
4078;SDS011;2054;47.858;11.156;2022-08-20T11:16:02;4.53;;;4.10;;
4078;SDS011;2054;47.858;11.156;2022-08-20T11:18:31;5.28;;;4.75;;
4078;SDS011;2054;47.858;11.156;2022-08-20T11:20:58;7.22;;;5.60;;
4078;SDS011;2054;47.858;11.156;2022-08-20T11:23:26;7.60;;;6.38;;
4078;SDS011;2054;47.858;11.156;2022-08-20T11:25:53;7.43;;;6.47;;
4078;SDS011;2054;47.858;11.156;2022-08-20T11:28:20;8.75;;;7.85;;
4078;SDS011;2054;47.858;11.156;2022-08-20T11:30:48;11.02;;;8.48;;
4078;SDS011;2054;47.858;11.156;2022-08-20T11:33:15;10.55;;;7.57;;
4078;SDS011;2054;47.858;11.156;2022-08-20T11:35:44;10.10;;;6.97;;
4078;SDS011;2054;47.858;11.156;2022-08-20T11:38:11;9.20;;;6.72;;
4078;SDS011;2054;47.858;11.156;2022-08-20T11:40:38;8.20;;;6.90;;
4078;SDS011;2054;47.858;11.156;2022-08-20T11:43:06;7.65;;;6.78;;
4078;SDS011;2054;47.858;11.156;2022-08-20T11:45:33;7.18;;;6.32;;
4078;SDS011;2054;47.858;11.156;2022-08-20T11:48:00;7.18;;;6.47;;
4078;SDS011;2054;47.858;11.156;2022-08-20T11:50:27;8.38;;;6.47;;
4078;SDS011;2054;47.858;11.156;2022-08-20T11:52:56;7.50;;;5.97;;
4078;SDS011;2054;47.858;11.156;2022-08-20T11:55:23;7.93;;;6.05;;
4078;SDS011;2054;47.858;11.156;2022-08-20T11:57:50;7.85;;;6.07;;
4078;SDS011;2054;47.858;11.156;2022-08-20T12:00:18;6.95;;;5.35;;
4078;SDS011;2054;47.858;11.156;2022-08-20T12:02:47;8.75;;;5.90;;
4078;SDS011;2054;47.858;11.156;2022-08-20T12:05:16;5.63;;;4.97;;
4078;SDS011;2054;47.858;11.156;2022-08-20T12:07:44;6.22;;;4.57;;
4078;SDS011;2054;47.858;11.156;2022-08-20T12:10:12;7.20;;;5.28;;
4078;SDS011;2054;47.858;11.156;2022-08-20T12:12:39;5.90;;;4.13;;
4078;SDS011;2054;47.858;11.156;2022-08-20T12:15:08;4.55;;;4.13;;
4078;SDS011;2054;47.858;11.156;2022-08-20T12:17:35;4.57;;;4.03;;
4078;SDS011;2054;47.858;11.156;2022-08-20T12:20:04;5.57;;;4.95;;
4078;SDS011;2054;47.858;11.156;2022-08-20T12:22:32;5.15;;;4.28;;
4078;SDS011;2054;47.858;11.156;2022-08-20T12:24:59;4.40;;;4.00;;
4078;SDS011;2054;47.858;11.156;2022-08-20T12:27:29;4.50;;;4.10;;
4078;SDS011;2054;47.858;11.156;2022-08-20T12:29:57;4.32;;;3.92;;
4078;SDS011;2054;47.858;11.156;2022-08-20T12:32:26;4.28;;;3.95;;
4078;SDS011;2054;47.858;11.156;2022-08-20T12:34:54;4.10;;;3.70;;
4078;SDS011;2054;47.858;11.156;2022-08-20T12:37:22;3.78;;;3.47;;
4078;SDS011;2054;47.858;11.156;2022-08-20T12:39:50;4.47;;;4.13;;
4078;SDS011;2054;47.858;11.156;2022-08-20T12:42:18;4.95;;;3.58;;
4078;SDS011;2054;47.858;11.156;2022-08-20T12:44:47;5.47;;;3.85;;
4078;SDS011;2054;47.858;11.156;2022-08-20T12:47:15;5.70;;;3.90;;
4078;SDS011;2054;47.858;11.156;2022-08-20T12:49:45;4.38;;;3.40;;
4078;SDS011;2054;47.858;11.156;2022-08-20T12:52:13;3.85;;;3.55;;
4078;SDS011;2054;47.858;11.156;2022-08-20T12:54:41;4.13;;;3.83;;
4078;SDS011;2054;47.858;11.156;2022-08-20T12:57:12;4.95;;;3.90;;
4078;SDS011;2054;47.858;11.156;2022-08-20T12:59:39;4.28;;;3.85;;
4078;SDS011;2054;47.858;11.156;2022-08-20T13:02:07;3.90;;;3.40;;
4078;SDS011;2054;47.858;11.156;2022-08-20T13:04:35;6.43;;;4.15;;
4078;SDS011;2054;47.858;11.156;2022-08-20T13:07:03;5.10;;;4.55;;
4078;SDS011;2054;47.858;11.156;2022-08-20T13:09:30;4.43;;;4.03;;
4078;SDS011;2054;47.858;11.156;2022-08-20T13:11:57;3.75;;;3.45;;
4078;SDS011;2054;47.858;11.156;2022-08-20T13:14:25;3.45;;;3.15;;
4078;SDS011;2054;47.858;11.156;2022-08-20T13:16:55;5.03;;;2.85;;
4078;SDS011;2054;47.858;11.156;2022-08-20T13:19:24;3.53;;;2.38;;
4078;SDS011;2054;47.858;11.156;2022-08-20T13:21:52;2.42;;;2.22;;
4078;SDS011;2054;47.858;11.156;2022-08-20T13:24:20;4.30;;;3.90;;
4078;SDS011;2054;47.858;11.156;2022-08-20T13:26:47;4.35;;;3.95;;
4078;SDS011;2054;47.858;11.156;2022-08-20T13:29:15;3.67;;;3.38;;
4078;SDS011;2054;47.858;11.156;2022-08-20T13:31:42;2.60;;;2.20;;
4078;SDS011;2054;47.858;11.156;2022-08-20T13:34:10;2.35;;;2.10;;
4078;SDS011;2054;47.858;11.156;2022-08-20T13:36:38;2.10;;;1.90;;
4078;SDS011;2054;47.858;11.156;2022-08-20T13:39:06;2.50;;;2.30;;
4078;SDS011;2054;47.858;11.156;2022-08-20T13:41:33;2.15;;;1.95;;
4078;SDS011;2054;47.858;11.156;2022-08-20T13:44:00;2.50;;;2.30;;
4078;SDS011;2054;47.858;11.156;2022-08-20T13:46:30;3.10;;;2.25;;
4078;SDS011;2054;47.858;11.156;2022-08-20T13:48:57;2.42;;;2.30;;
4078;SDS011;2054;47.858;11.156;2022-08-20T13:51:24;2.35;;;2.15;;
4078;SDS011;2054;47.858;11.156;2022-08-20T13:53:53;3.00;;;2.60;;
4078;SDS011;2054;47.858;11.156;2022-08-20T13:56:20;2.50;;;2.30;;
4078;SDS011;2054;47.858;11.156;2022-08-20T13:58:47;2.80;;;2.60;;
4078;SDS011;2054;47.858;11.156;2022-08-20T14:01:15;3.75;;;3.38;;
4078;SDS011;2054;47.858;11.156;2022-08-20T14:03:42;3.75;;;2.35;;
4078;SDS011;2054;47.858;11.156;2022-08-20T14:06:10;2.83;;;2.60;;
4078;SDS011;2054;47.858;11.156;2022-08-20T14:08:37;3.20;;;2.92;;
4078;SDS011;2054;47.858;11.156;2022-08-20T14:11:06;4.70;;;3.50;;
4078;SDS011;2054;47.858;11.156;2022-08-20T14:13:33;4.18;;;3.38;;
4078;SDS011;2054;47.858;11.156;2022-08-20T14:16:00;3.20;;;2.90;;
4078;SDS011;2054;47.858;11.156;2022-08-20T14:18:28;4.75;;;3.88;;
4078;SDS011;2054;47.858;11.156;2022-08-20T14:20:55;3.70;;;3.20;;
4078;SDS011;2054;47.858;11.156;2022-08-20T14:23:22;3.80;;;3.40;;
4078;SDS011;2054;47.858;11.156;2022-08-20T14:25:49;2.42;;;2.22;;
4078;SDS011;2054;47.858;11.156;2022-08-20T14:28:18;3.10;;;2.75;;
4078;SDS011;2054;47.858;11.156;2022-08-20T14:30:46;2.72;;;2.53;;
4078;SDS011;2054;47.858;11.156;2022-08-20T14:33:14;3.38;;;2.35;;
4078;SDS011;2054;47.858;11.156;2022-08-20T14:35:41;3.58;;;2.63;;
4078;SDS011;2054;47.858;11.156;2022-08-20T14:38:08;2.97;;;2.33;;
4078;SDS011;2054;47.858;11.156;2022-08-20T14:40:35;4.07;;;2.63;;
4078;SDS011;2054;47.858;11.156;2022-08-20T14:43:03;2.33;;;2.13;;
4078;SDS011;2054;47.858;11.156;2022-08-20T14:45:31;2.58;;;2.38;;
4078;SDS011;2054;47.858;11.156;2022-08-20T14:47:59;3.30;;;2.35;;
4078;SDS011;2054;47.858;11.156;2022-08-20T14:50:27;2.47;;;2.20;;
4078;SDS011;2054;47.858;11.156;2022-08-20T14:52:54;2.28;;;2.08;;
4078;SDS011;2054;47.858;11.156;2022-08-20T14:55:23;2.40;;;2.20;;
4078;SDS011;2054;47.858;11.156;2022-08-20T14:57:50;2.85;;;2.65;;
4078;SDS011;2054;47.858;11.156;2022-08-20T15:00:19;2.40;;;2.17;;
4078;SDS011;2054;47.858;11.156;2022-08-20T15:02:48;2.92;;;2.53;;
4078;SDS011;2054;47.858;11.156;2022-08-20T15:05:16;3.33;;;2.85;;
4078;SDS011;2054;47.858;11.156;2022-08-20T15:07:44;3.15;;;2.45;;
4078;SDS011;2054;47.858;11.156;2022-08-20T15:10:13;2.78;;;2.58;;
4078;SDS011;2054;47.858;11.156;2022-08-20T15:12:41;2.03;;;1.90;;
4078;SDS011;2054;47.858;11.156;2022-08-20T15:15:09;2.03;;;1.70;;
4078;SDS011;2054;47.858;11.156;2022-08-20T15:17:37;2.00;;;1.80;;
4078;SDS011;2054;47.858;11.156;2022-08-20T15:20:07;2.35;;;1.65;;
4078;SDS011;2054;47.858;11.156;2022-08-20T15:22:36;3.05;;;1.77;;
4078;SDS011;2054;47.858;11.156;2022-08-20T15:25:04;1.60;;;1.50;;
4078;SDS011;2054;47.858;11.156;2022-08-20T15:27:31;1.77;;;1.33;;
4078;SDS011;2054;47.858;11.156;2022-08-20T15:30:01;1.98;;;1.40;;
4078;SDS011;2054;47.858;11.156;2022-08-20T15:32:29;1.60;;;1.50;;
4078;SDS011;2054;47.858;11.156;2022-08-20T15:34:56;2.05;;;1.30;;
4078;SDS011;2054;47.858;11.156;2022-08-20T15:37:25;1.60;;;1.50;;
4078;SDS011;2054;47.858;11.156;2022-08-20T15:39:53;1.75;;;1.65;;
4078;SDS011;2054;47.858;11.156;2022-08-20T15:42:20;2.92;;;1.67;;
4078;SDS011;2054;47.858;11.156;2022-08-20T15:44:48;1.60;;;1.50;;
4078;SDS011;2054;47.858;11.156;2022-08-20T15:47:20;1.90;;;1.80;;
4078;SDS011;2054;47.858;11.156;2022-08-20T15:49:49;1.92;;;1.83;;
4078;SDS011;2054;47.858;11.156;2022-08-20T15:52:18;2.13;;;2.03;;
4078;SDS011;2054;47.858;11.156;2022-08-20T15:54:47;2.17;;;1.50;;
4078;SDS011;2054;47.858;11.156;2022-08-20T15:57:20;1.88;;;1.65;;
4078;SDS011;2054;47.858;11.156;2022-08-20T15:59:58;3.38;;;2.00;;
4078;SDS011;2054;47.858;11.156;2022-08-20T16:05:21;2.00;;;1.90;;
4078;SDS011;2054;47.858;11.156;2022-08-20T16:07:52;2.30;;;2.10;;
4078;SDS011;2054;47.858;11.156;2022-08-20T16:10:25;3.13;;;2.72;;
4078;SDS011;2054;47.858;11.156;2022-08-20T16:12:54;3.47;;;2.60;;
4078;SDS011;2054;47.858;11.156;2022-08-20T16:15:24;3.10;;;2.20;;
4078;SDS011;2054;47.858;11.156;2022-08-20T16:17:53;2.30;;;2.00;;
4078;SDS011;2054;47.858;11.156;2022-08-20T16:20:25;7.38;;;5.95;;
4078;SDS011;2054;47.858;11.156;2022-08-20T16:22:55;1.98;;;1.85;;
4078;SDS011;2054;47.858;11.156;2022-08-20T16:25:23;2.08;;;1.88;;
4078;SDS011;2054;47.858;11.156;2022-08-20T16:28:00;1.80;;;1.70;;
4078;SDS011;2054;47.858;11.156;2022-08-20T16:30:33;1.90;;;1.80;;
4078;SDS011;2054;47.858;11.156;2022-08-20T16:33:04;1.95;;;1.80;;
4078;SDS011;2054;47.858;11.156;2022-08-20T16:35:33;10.18;;;7.00;;
4078;SDS011;2054;47.858;11.156;2022-08-20T16:38:05;15.65;;;11.57;;
4078;SDS011;2054;47.858;11.156;2022-08-20T16:40:42;15.65;;;13.25;;
4078;SDS011;2054;47.858;11.156;2022-08-20T16:43:11;19.45;;;17.10;;
4078;SDS011;2054;47.858;11.156;2022-08-20T16:45:44;7.63;;;6.63;;
4078;SDS011;2054;47.858;11.156;2022-08-20T16:48:13;8.15;;;7.45;;
4078;SDS011;2054;47.858;11.156;2022-08-20T16:50:44;8.38;;;7.68;;
4078;SDS011;2054;47.858;11.156;2022-08-20T16:53:15;2.03;;;1.85;;
4078;SDS011;2054;47.858;11.156;2022-08-20T16:55:45;2.28;;;1.70;;
4078;SDS011;2054;47.858;11.156;2022-08-20T16:58:12;3.50;;;2.22;;
4078;SDS011;2054;47.858;11.156;2022-08-20T17:00:39;2.40;;;2.20;;
4078;SDS011;2054;47.858;11.156;2022-08-20T17:03:07;2.00;;;1.77;;
4078;SDS011;2054;47.858;11.156;2022-08-20T17:05:42;2.30;;;2.10;;
4078;SDS011;2054;47.858;11.156;2022-08-20T17:08:14;2.92;;;1.70;;
4078;SDS011;2054;47.858;11.156;2022-08-20T17:10:53;1.50;;;1.40;;
4078;SDS011;2054;47.858;11.156;2022-08-20T17:13:22;3.13;;;1.55;;
4078;SDS011;2054;47.858;11.156;2022-08-20T17:15:53;1.95;;;1.73;;
4078;SDS011;2054;47.858;11.156;2022-08-20T17:18:21;2.25;;;1.77;;
4078;SDS011;2054;47.858;11.156;2022-08-20T17:20:49;1.90;;;1.80;;
4078;SDS011;2054;47.858;11.156;2022-08-20T17:23:17;2.75;;;1.80;;
4078;SDS011;2054;47.858;11.156;2022-08-20T17:25:52;1.83;;;1.73;;
4078;SDS011;2054;47.858;11.156;2022-08-20T17:28:22;2.60;;;1.67;;
4078;SDS011;2054;47.858;11.156;2022-08-20T17:30:49;1.55;;;1.45;;
4078;SDS011;2054;47.858;11.156;2022-08-20T17:33:18;2.00;;;1.90;;
4078;SDS011;2054;47.858;11.156;2022-08-20T17:35:50;2.30;;;1.90;;